createdAt,value
2022-11-09T00:00:56.519Z,9.24
2022-11-09T00:03:23.419Z,9.18
2022-11-09T00:06:00.756Z,9.34
2022-11-09T00:08:28.545Z,9.17
2022-11-09T00:10:55.615Z,9.13
2022-11-09T00:13:23.167Z,9.13
2022-11-09T00:15:50.453Z,9.03
2022-11-09T00:18:17.424Z,9.09
2022-11-09T00:20:47.687Z,8.96
2022-11-09T00:23:18.592Z,9.17
2022-11-09T00:25:45.760Z,9.11
2022-11-09T00:28:12.837Z,9.01
2022-11-09T00:30:40.696Z,9.16
2022-11-09T00:33:08.993Z,9.15
2022-11-09T00:35:38.794Z,9.04
2022-11-09T00:38:05.919Z,9.09
2022-11-09T00:40:32.858Z,9.07
2022-11-09T00:42:59.737Z,9.01
2022-11-09T00:45:26.645Z,9.01
2022-11-09T00:47:53.551Z,9.13
2022-11-09T00:50:20.467Z,9.03
2022-11-09T00:52:48.746Z,8.96
2022-11-09T00:55:15.829Z,8.97
2022-11-09T00:57:42.902Z,9.04
2022-11-09T01:00:10.710Z,9.10
2022-11-09T01:02:37.648Z,8.99
2022-11-09T01:05:05.057Z,9.01
2022-11-09T01:07:32.093Z,8.95
2022-11-09T01:09:58.998Z,8.91
2022-11-09T01:12:25.886Z,9.08
2022-11-09T01:14:52.953Z,9.03
2022-11-09T01:17:19.911Z,8.99
2022-11-09T01:19:47.586Z,9.05
2022-11-09T01:22:15.127Z,9.03
2022-11-09T01:24:42.271Z,8.95
2022-11-09T01:27:09.438Z,8.98
2022-11-09T01:29:36.693Z,9.08
2022-11-09T01:32:04.426Z,9.02
2022-11-09T01:34:32.457Z,9.04
2022-11-09T01:37:02.336Z,8.99
2022-11-09T01:39:30.346Z,8.98
2022-11-09T01:41:57.486Z,9.03
2022-11-09T01:44:27.975Z,9.08
2022-11-09T01:46:59.950Z,9.08
2022-11-09T01:49:48.052Z,9.13
2022-11-09T01:52:36.564Z,9.14
2022-11-09T01:55:24.549Z,9.12
2022-11-09T01:57:56.649Z,9.15
2022-11-09T02:00:23.957Z,9.03
2022-11-09T02:03:00.929Z,9.05
2022-11-09T02:05:31.195Z,9.02
2022-11-09T02:08:02.068Z,8.99
2022-11-09T02:10:34.148Z,8.95
2022-11-09T02:13:02.934Z,8.96
2022-11-09T02:15:39.146Z,9.07
2022-11-09T02:18:11.533Z,8.99
2022-11-09T02:20:51.282Z,8.93
2022-11-09T02:23:19.629Z,9.03
2022-11-09T02:25:53.044Z,9.04
2022-11-09T02:28:20.981Z,8.99
2022-11-09T02:30:53.844Z,8.99
2022-11-09T02:33:21.793Z,8.90
2022-11-09T02:35:49.100Z,8.95
2022-11-09T02:38:16.395Z,8.90
2022-11-09T02:40:48.275Z,8.99
2022-11-09T02:43:18.786Z,8.65
2022-11-09T02:45:46.163Z,8.98
2022-11-09T02:48:13.243Z,8.83
2022-11-09T02:50:40.645Z,8.83
2022-11-09T02:53:07.625Z,8.83
2022-11-09T02:55:37.969Z,8.70
2022-11-09T02:58:06.558Z,8.62
2022-11-09T03:00:35.160Z,8.68
2022-11-09T03:03:03.839Z,8.68
2022-11-09T03:05:30.959Z,8.73
2022-11-09T03:08:02.657Z,8.78
2022-11-09T03:10:32.912Z,8.77
2022-11-09T03:13:00.911Z,8.82
2022-11-09T03:15:27.900Z,8.80
2022-11-09T03:17:54.911Z,8.71
2022-11-09T03:20:22.442Z,8.76
2022-11-09T03:22:49.502Z,8.68
2022-11-09T03:25:17.144Z,8.78
2022-11-09T03:27:44.102Z,8.73
2022-11-09T03:30:12.838Z,8.75
2022-11-09T03:32:40.446Z,8.74
2022-11-09T03:35:08.465Z,8.80
2022-11-09T03:37:35.813Z,8.78
2022-11-09T03:40:04.138Z,8.61
2022-11-09T03:42:31.037Z,8.62
2022-11-09T03:44:58.048Z,8.65
2022-11-09T03:47:24.971Z,8.81
2022-11-09T03:49:51.881Z,8.73
2022-11-09T03:52:18.831Z,8.71
2022-11-09T03:54:45.769Z,8.68
2022-11-09T03:57:12.720Z,8.68
2022-11-09T03:59:39.662Z,8.63
2022-11-09T04:02:06.652Z,8.61
2022-11-09T04:04:33.666Z,8.62
2022-11-09T04:07:00.740Z,8.60
2022-11-09T04:09:27.780Z,8.55
2022-11-09T04:11:54.783Z,8.67
2022-11-09T04:14:21.751Z,8.54
2022-11-09T04:16:48.741Z,8.63
2022-11-09T04:19:15.727Z,8.53
2022-11-09T04:21:42.604Z,8.44
2022-11-09T04:24:12.033Z,8.54
2022-11-09T04:26:39.043Z,8.51
2022-11-09T04:29:05.952Z,8.38
2022-11-09T04:31:32.854Z,8.36
2022-11-09T04:33:59.922Z,8.31
2022-11-09T04:36:26.925Z,8.41
2022-11-09T04:38:53.971Z,8.39
2022-11-09T04:41:21.001Z,8.48
2022-11-09T04:43:48.286Z,8.25
2022-11-09T04:46:15.205Z,8.35
2022-11-09T04:48:42.271Z,8.23
2022-11-09T04:51:13.685Z,8.37
2022-11-09T04:53:41.379Z,8.37
2022-11-09T04:56:08.650Z,8.31
2022-11-09T04:58:35.711Z,8.25
2022-11-09T05:01:10.506Z,8.34
2022-11-09T05:03:37.927Z,8.30
2022-11-09T05:06:25.725Z,8.31
2022-11-09T05:08:53.837Z,8.37
2022-11-09T05:11:21.215Z,8.22
2022-11-09T05:13:48.871Z,8.20
2022-11-09T05:16:17.802Z,8.22
2022-11-09T05:18:44.825Z,8.13
2022-11-09T05:21:12.440Z,8.09
2022-11-09T05:23:58.043Z,8.04
2022-11-09T05:26:39.682Z,8.09
2022-11-09T05:29:12.317Z,8.11
2022-11-09T05:31:40.755Z,8.02
2022-11-09T05:34:08.296Z,8.15
2022-11-09T05:36:35.411Z,8.06
2022-11-09T05:39:02.342Z,8.03
2022-11-09T05:41:29.401Z,8.04
2022-11-09T05:43:56.379Z,8.06
2022-11-09T05:46:23.412Z,7.95
2022-11-09T05:48:50.365Z,8.02
2022-11-09T05:51:17.461Z,7.87
2022-11-09T05:53:46.691Z,7.82
2022-11-09T05:56:15.207Z,8.04
2022-11-09T05:58:42.587Z,8.00
2022-11-09T06:01:12.050Z,8.00
2022-11-09T06:03:39.251Z,7.87
2022-11-09T06:06:09.090Z,7.96
2022-11-09T06:08:37.927Z,7.94
2022-11-09T06:11:07.116Z,7.94
2022-11-09T06:13:34.654Z,7.96
2022-11-09T06:16:03.834Z,7.90
2022-11-09T06:18:32.689Z,8.00
2022-11-09T06:21:01.951Z,8.11
2022-11-09T06:23:30.477Z,8.38
2022-11-09T06:26:10.043Z,8.22
2022-11-09T06:28:41.376Z,8.33
2022-11-09T06:31:12.932Z,8.33
2022-11-09T06:33:40.044Z,8.21
2022-11-09T06:36:07.478Z,8.30
2022-11-09T06:38:34.538Z,8.36
2022-11-09T06:41:01.849Z,8.58
2022-11-09T06:43:29.134Z,8.56
2022-11-09T06:45:56.514Z,8.31
2022-11-09T06:48:24.569Z,8.66
2022-11-09T06:50:51.649Z,8.78
2022-11-09T06:53:19.272Z,8.84
2022-11-09T06:55:50.595Z,9.07
2022-11-09T06:58:19.841Z,9.03
2022-11-09T07:00:47.551Z,9.09
2022-11-09T07:03:16.358Z,9.23
2022-11-09T07:05:43.979Z,9.35
2022-11-09T07:08:11.612Z,9.44
2022-11-09T07:10:39.170Z,9.18
2022-11-09T07:13:06.936Z,9.58
2022-11-09T07:15:34.884Z,9.66
2022-11-09T07:18:03.372Z,9.77
2022-11-09T07:20:30.609Z,9.95
2022-11-09T07:22:57.721Z,10.13
2022-11-09T07:25:25.441Z,10.30
2022-11-09T07:27:52.459Z,10.35
2022-11-09T07:30:19.796Z,10.28
2022-11-09T07:33:08.074Z,10.31
2022-11-09T07:35:33.680Z,10.54
2022-11-09T07:38:02.230Z,10.64
2022-11-09T07:40:30.460Z,10.68
2022-11-09T07:43:01.487Z,10.76
2022-11-09T07:45:29.866Z,11.07
2022-11-09T07:47:59.082Z,11.07
2022-11-09T07:50:26.912Z,11.28
2022-11-09T07:52:59.257Z,11.40
2022-11-09T07:55:27.792Z,11.47
2022-11-09T07:58:04.678Z,11.38
2022-11-09T08:00:33.186Z,11.63
2022-11-09T08:03:00.253Z,11.75
2022-11-09T08:05:27.509Z,11.84
2022-11-09T08:07:59.019Z,11.95
2022-11-09T08:10:27.460Z,12.09
2022-11-09T08:12:55.878Z,12.32
2022-11-09T08:15:23.361Z,12.34
2022-11-09T08:17:50.513Z,12.49
2022-11-09T08:20:17.864Z,12.77
2022-11-09T08:22:46.173Z,12.82
2022-11-09T08:25:14.645Z,12.93
2022-11-09T08:27:41.832Z,12.97
2022-11-09T08:30:14.229Z,12.83
2022-11-09T08:32:42.912Z,13.00
2022-11-09T08:35:11.588Z,12.97
2022-11-09T08:37:38.855Z,13.22
2022-11-09T08:40:07.286Z,13.34
2022-11-09T08:42:34.272Z,13.34
2022-11-09T08:45:01.916Z,13.62
2022-11-09T08:47:29.386Z,13.61
2022-11-09T08:49:56.340Z,13.85
2022-11-09T08:52:23.399Z,14.35
2022-11-09T08:54:50.443Z,14.44
2022-11-09T08:57:20.915Z,14.55
2022-11-09T08:59:47.900Z,14.74
2022-11-09T09:02:15.590Z,14.77
2022-11-09T09:04:43.126Z,14.62
2022-11-09T09:07:11.051Z,14.53
2022-11-09T09:09:38.511Z,14.52
2022-11-09T09:12:07.192Z,14.66
2022-11-09T09:14:34.504Z,14.78
2022-11-09T09:17:01.809Z,14.80
2022-11-09T09:19:28.936Z,14.71
2022-11-09T09:21:56.063Z,14.79
2022-11-09T09:24:23.108Z,14.74
2022-11-09T09:26:50.131Z,14.82
2022-11-09T09:29:17.346Z,15.05
2022-11-09T09:31:44.451Z,15.29
2022-11-09T09:34:12.719Z,15.24
2022-11-09T09:36:44.722Z,15.22
2022-11-09T09:39:14.825Z,15.21
2022-11-09T09:41:50.326Z,15.09
2022-11-09T09:44:50.358Z,15.11
2022-11-09T09:47:25.203Z,14.88
2022-11-09T09:49:59.881Z,14.90
2022-11-09T09:53:04.714Z,14.73
2022-11-09T09:55:43.272Z,14.80
2022-11-09T09:58:19.577Z,15.01
2022-11-09T10:00:48.418Z,15.00
2022-11-09T10:03:20.133Z,14.79
2022-11-09T10:06:01.716Z,14.86
2022-11-09T10:09:11.065Z,14.98
2022-11-09T10:12:07.042Z,15.00
2022-11-09T10:15:00.961Z,15.12
2022-11-09T10:17:41.530Z,15.16
2022-11-09T10:20:27.537Z,15.23
2022-11-09T10:23:03.730Z,15.23
2022-11-09T10:26:02.923Z,15.16
2022-11-09T10:28:42.394Z,14.94
2022-11-09T10:31:19.321Z,14.92
2022-11-09T10:33:52.823Z,14.97
2022-11-09T10:36:29.966Z,15.09
2022-11-09T10:39:00.533Z,15.04
2022-11-09T10:41:49.393Z,15.00
2022-11-09T10:44:34.678Z,15.10
2022-11-09T10:47:20.351Z,14.95
2022-11-09T10:50:18.155Z,14.99
2022-11-09T10:53:23.465Z,15.08
2022-11-09T10:56:20.925Z,15.07
2022-11-09T10:59:47.503Z,14.95
2022-11-09T11:02:45.081Z,14.93
2022-11-09T11:05:32.296Z,15.01
2022-11-09T11:08:41.160Z,14.93
2022-11-09T11:11:36.474Z,14.92
2022-11-09T11:14:33.378Z,15.18
2022-11-09T11:17:35.433Z,14.99
2022-11-09T11:20:31.344Z,15.03
2022-11-09T11:23:25.804Z,14.93
2022-11-09T11:26:23.400Z,14.96
2022-11-09T11:29:48.588Z,14.95
2022-11-09T11:32:34.777Z,14.93
2022-11-09T11:35:32.889Z,14.98
2022-11-09T11:38:33.613Z,15.14
2022-11-09T11:41:38.868Z,15.01
2022-11-09T11:45:18.486Z,15.02
2022-11-09T11:48:13.633Z,15.10
2022-11-09T11:51:11.256Z,15.01
2022-11-09T11:54:31.100Z,15.12
2022-11-09T11:57:25.534Z,15.10
2022-11-09T12:00:15.630Z,15.07
2022-11-09T12:03:17.012Z,15.01
2022-11-09T12:06:11.556Z,14.94
2022-11-09T12:09:14.784Z,15.00
2022-11-09T12:12:24.623Z,14.99
2022-11-09T12:15:28.585Z,15.03
2022-11-09T12:18:34.305Z,15.06
2022-11-09T12:21:44.404Z,15.15
2022-11-09T12:24:57.298Z,15.01
2022-11-09T12:28:06.564Z,15.08
2022-11-09T12:31:35.512Z,15.10
2022-11-09T12:34:31.230Z,15.12
2022-11-09T12:37:35.976Z,14.90
2022-11-09T12:40:31.817Z,14.91
2022-11-09T12:43:26.124Z,14.90
2022-11-09T12:46:14.800Z,14.86
2022-11-09T12:49:04.319Z,14.79
2022-11-09T12:51:52.353Z,14.89
2022-11-09T12:54:44.629Z,14.88
2022-11-09T12:57:31.113Z,14.87
2022-11-09T13:00:35.125Z,14.82
2022-11-09T13:03:27.191Z,14.72
2022-11-09T13:06:17.546Z,14.76
2022-11-09T13:09:15.783Z,14.66
2022-11-09T13:12:18.457Z,14.67
2022-11-09T13:15:36.909Z,14.60
2022-11-09T13:18:46.566Z,14.68
2022-11-09T13:21:34.286Z,14.72
2022-11-09T13:24:32.701Z,14.68
2022-11-09T13:27:48.115Z,14.37
2022-11-09T13:30:39.149Z,14.60
2022-11-09T13:33:29.387Z,14.40
2022-11-09T13:36:17.703Z,14.52
2022-11-09T13:39:33.157Z,14.35
2022-11-09T13:42:28.060Z,14.27
2022-11-09T13:45:36.702Z,14.31
2022-11-09T13:48:41.096Z,14.40
2022-11-09T13:51:35.444Z,14.33
2022-11-09T13:54:30.832Z,14.27
2022-11-09T13:57:16.913Z,14.42
2022-11-09T14:00:05.781Z,14.34
2022-11-09T14:03:17.829Z,14.36
2022-11-09T14:06:03.754Z,14.30
2022-11-09T14:08:49.604Z,14.45
2022-11-09T14:11:47.408Z,14.46
2022-11-09T14:14:41.784Z,14.24
2022-11-09T14:17:50.284Z,14.35
2022-11-09T14:20:54.646Z,14.39
2022-11-09T14:23:40.087Z,14.26
2022-11-09T14:26:26.565Z,14.31
2022-11-09T14:29:22.328Z,14.17
2022-11-09T14:32:30.412Z,14.14
2022-11-09T14:35:33.626Z,14.24
2022-11-09T14:38:23.009Z,14.15
2022-11-09T14:41:21.101Z,14.23
2022-11-09T14:44:07.449Z,14.08
2022-11-09T14:46:55.383Z,14.01
2022-11-09T14:49:41.444Z,14.06
2022-11-09T14:52:29.249Z,14.08
2022-11-09T14:55:17.297Z,13.96
2022-11-09T14:58:03.429Z,13.90
2022-11-09T15:01:07.930Z,13.91
2022-11-09T15:04:15.025Z,13.75
2022-11-09T15:07:04.139Z,13.72
2022-11-09T15:09:59.306Z,13.81
2022-11-09T15:12:53.292Z,13.78
2022-11-09T15:15:40.256Z,13.83
2022-11-09T15:18:33.407Z,13.88
2022-11-09T15:21:40.350Z,13.80
2022-11-09T15:24:28.682Z,13.79
2022-11-09T15:27:35.665Z,13.84
2022-11-09T15:30:30.427Z,13.90
2022-11-09T16:48:35.452Z,13.72
2022-11-09T16:51:21.851Z,13.92
2022-11-09T16:54:08.240Z,13.85
2022-11-09T16:56:55.092Z,14.10
2022-11-09T16:59:42.127Z,14.03
2022-11-09T17:02:27.760Z,13.91
2022-11-09T17:05:14.207Z,13.78
2022-11-09T17:08:00.994Z,13.88
2022-11-09T17:10:47.435Z,13.76
2022-11-09T17:13:32.877Z,13.82
2022-11-09T17:16:20.720Z,13.85
2022-11-09T17:19:06.630Z,13.81
2022-11-09T17:21:52.698Z,13.84
2022-11-09T17:24:38.260Z,13.85
2022-11-09T17:27:24.031Z,13.96
2022-11-09T17:30:10.984Z,13.96
2022-11-09T17:32:57.222Z,14.03
2022-11-09T17:35:45.571Z,14.10
2022-11-09T17:38:32.798Z,13.92
2022-11-09T17:41:20.807Z,13.74
2022-11-09T17:44:06.374Z,13.84
2022-11-09T17:46:52.739Z,13.92
2022-11-09T17:49:38.930Z,13.95
2022-11-09T17:52:24.912Z,13.83
2022-11-09T17:55:10.368Z,13.91
2022-11-09T17:57:56.348Z,13.86
2022-11-09T18:00:45.644Z,13.69
2022-11-09T18:03:36.943Z,13.85
2022-11-09T18:06:24.903Z,13.77
2022-11-09T18:09:39.659Z,13.86
2022-11-09T18:12:17.621Z,13.82
2022-11-09T18:15:03.984Z,13.76
2022-11-09T18:17:49.555Z,13.80
2022-11-09T18:20:39.752Z,13.71
2022-11-09T18:23:25.960Z,13.76
2022-11-09T18:26:12.303Z,13.88
2022-11-09T18:28:58.784Z,13.82
2022-11-09T18:31:44.486Z,14.04
2022-11-09T18:34:30.440Z,13.99
2022-11-09T18:37:16.495Z,13.98
2022-11-09T18:40:02.326Z,13.98
2022-11-09T18:42:48.204Z,13.90
2022-11-09T18:45:35.371Z,13.90
2022-11-09T18:48:24.210Z,13.66
2022-11-09T18:51:11.422Z,13.90
2022-11-09T18:53:57.529Z,13.92
2022-11-09T18:56:43.329Z,13.97
2022-11-09T18:59:28.936Z,13.82
2022-11-09T19:02:14.943Z,13.94
2022-11-09T19:05:00.840Z,13.89
2022-11-09T19:07:46.782Z,13.88
2022-11-09T19:10:35.318Z,13.85
2022-11-09T19:13:21.257Z,13.84
2022-11-09T19:16:11.450Z,13.69
2022-11-09T19:18:58.047Z,13.84
2022-11-09T19:21:48.497Z,13.80
2022-11-09T19:24:34.303Z,13.87
2022-11-09T19:27:20.062Z,14.23
2022-11-09T19:30:09.636Z,14.31
2022-11-09T19:32:55.920Z,14.56
2022-11-09T19:35:42.093Z,14.67
2022-11-09T19:38:27.952Z,14.72
2022-11-09T19:41:13.677Z,14.74
2022-11-09T19:44:02.216Z,14.77
2022-11-09T19:46:48.573Z,14.69
2022-11-09T19:49:34.519Z,14.73
2022-11-09T19:52:20.471Z,14.70
2022-11-09T19:55:06.818Z,14.79
2022-11-09T19:57:55.305Z,14.75
2022-11-09T20:00:41.229Z,14.80
2022-11-09T20:03:27.167Z,14.74
2022-11-09T20:06:13.540Z,14.74
2022-11-09T20:09:04.417Z,14.73
2022-11-09T20:12:08.872Z,14.71
2022-11-09T20:14:54.653Z,14.67
2022-11-09T20:17:40.937Z,14.64
2022-11-09T20:20:26.797Z,14.62
2022-11-09T20:23:14.535Z,14.64
2022-11-09T20:26:06.993Z,14.46
2022-11-09T20:28:54.259Z,14.43
2022-11-09T20:31:40.681Z,14.43
2022-11-09T20:34:26.540Z,14.44
2022-11-09T20:37:11.845Z,14.38
2022-11-09T20:39:57.674Z,14.38
2022-11-09T20:42:44.242Z,14.40
2022-11-09T20:45:29.899Z,14.37
2022-11-09T20:48:38.645Z,14.45
2022-11-09T20:51:22.170Z,14.53
2022-11-09T20:54:08.067Z,14.43
2022-11-09T20:56:53.777Z,14.43
2022-11-09T20:59:39.587Z,14.48
2022-11-09T21:02:25.731Z,14.44
2022-11-09T21:05:11.402Z,14.44
2022-11-09T21:08:00.372Z,14.42
2022-11-09T21:10:46.068Z,14.36
2022-11-09T21:13:31.997Z,14.54
2022-11-09T21:16:19.524Z,14.30
2022-11-09T21:19:07.815Z,14.23
2022-11-09T21:21:53.152Z,14.26
2022-11-09T21:24:57.315Z,14.09
2022-11-09T21:28:01.299Z,14.39
2022-11-09T21:30:47.430Z,14.32
2022-11-09T21:33:33.140Z,14.39
2022-11-09T21:36:18.844Z,14.32
2022-11-09T21:39:04.552Z,14.42
2022-11-09T21:41:50.867Z,14.38
2022-11-09T21:44:36.670Z,14.41
2022-11-09T21:47:23.326Z,14.40
2022-11-09T21:50:12.524Z,14.40
2022-11-09T21:52:58.582Z,14.34
2022-11-09T21:55:44.063Z,14.39
2022-11-09T21:58:29.557Z,14.44
2022-11-09T22:01:18.142Z,14.32
2022-11-09T22:04:03.808Z,14.35
2022-11-09T22:06:49.398Z,14.39
2022-11-09T22:09:57.962Z,14.39
2022-11-09T22:12:58.917Z,14.25
2022-11-09T22:16:03.310Z,14.39
2022-11-09T22:19:07.414Z,14.24
2022-11-09T22:21:52.920Z,14.15
2022-11-09T22:24:38.633Z,14.18
2022-11-09T22:27:24.554Z,14.19
2022-11-09T22:30:10.702Z,14.18
2022-11-09T22:32:58.242Z,14.03
2022-11-09T22:35:43.975Z,14.28
2022-11-09T22:38:31.238Z,14.33
2022-11-09T22:41:17.451Z,14.19
2022-11-09T22:44:02.934Z,14.15
2022-11-09T22:46:49.474Z,14.05
2022-11-09T22:49:37.031Z,14.27
2022-11-09T22:52:22.774Z,14.11
2022-11-09T22:55:08.628Z,14.24
2022-11-09T22:57:58.237Z,14.02
2022-11-09T23:00:43.700Z,13.94
2022-11-09T23:03:29.118Z,14.02
2022-11-09T23:06:17.538Z,14.09
2022-11-09T23:09:02.905Z,13.91
2022-11-09T23:11:48.305Z,14.02
2022-11-09T23:14:52.261Z,13.88
2022-11-09T23:17:56.335Z,13.84
2022-11-09T23:20:42.950Z,13.91
2022-11-09T23:23:28.798Z,13.85
2022-11-09T23:26:14.132Z,13.89
2022-11-09T23:29:00.215Z,13.71
2022-11-09T23:31:45.910Z,13.91
2022-11-09T23:34:31.197Z,13.75
2022-11-09T23:37:16.651Z,13.74
2022-11-09T23:40:01.899Z,13.68
2022-11-09T23:42:47.274Z,13.70
2022-11-09T23:45:37.457Z,13.61
2022-11-09T23:48:23.204Z,13.63
2022-11-09T23:51:09.507Z,13.59
2022-11-09T23:53:55.045Z,13.64
2022-11-09T23:56:40.507Z,13.68
2022-11-09T23:59:26.042Z,13.59
